sensor_id;sensor_type;location;lat;lon;timestamp;P1;durP1;ratioP1;P2;durP2;ratioP2
74375;SDS011;62812;55.188;61.302;2023-04-16T00:02:07;10.40;;;2.42;;
74375;SDS011;62812;55.188;61.302;2023-04-16T00:04:35;8.35;;;2.42;;
74375;SDS011;62812;55.188;61.302;2023-04-16T00:07:01;7.10;;;2.50;;
74375;SDS011;62812;55.188;61.302;2023-04-16T00:09:28;7.32;;;2.45;;
74375;SDS011;62812;55.188;61.302;2023-04-16T00:11:55;6.97;;;2.33;;
74375;SDS011;62812;55.188;61.302;2023-04-16T00:14:22;8.93;;;2.40;;
74375;SDS011;62812;55.188;61.302;2023-04-16T00:16:51;7.50;;;2.80;;
74375;SDS011;62812;55.188;61.302;2023-04-16T00:19:17;8.13;;;3.03;;
74375;SDS011;62812;55.188;61.302;2023-04-16T00:21:44;10.07;;;2.78;;
74375;SDS011;62812;55.188;61.302;2023-04-16T00:24:11;10.60;;;3.00;;
74375;SDS011;62812;55.188;61.302;2023-04-16T00:26:38;10.73;;;2.63;;
74375;SDS011;62812;55.188;61.302;2023-04-16T00:29:05;8.23;;;2.80;;
74375;SDS011;62812;55.188;61.302;2023-04-16T00:31:33;5.95;;;2.67;;
74375;SDS011;62812;55.188;61.302;2023-04-16T00:34:02;7.95;;;3.40;;
74375;SDS011;62812;55.188;61.302;2023-04-16T00:36:29;9.45;;;2.85;;
74375;SDS011;62812;55.188;61.302;2023-04-16T00:38:56;7.47;;;2.40;;
74375;SDS011;62812;55.188;61.302;2023-04-16T00:41:22;7.65;;;2.78;;
74375;SDS011;62812;55.188;61.302;2023-04-16T00:43:49;10.05;;;2.78;;
74375;SDS011;62812;55.188;61.302;2023-04-16T00:46:16;6.78;;;2.30;;
74375;SDS011;62812;55.188;61.302;2023-04-16T00:48:45;9.38;;;2.80;;
74375;SDS011;62812;55.188;61.302;2023-04-16T00:51:14;10.30;;;3.08;;
74375;SDS011;62812;55.188;61.302;2023-04-16T00:53:41;7.80;;;2.70;;
74375;SDS011;62812;55.188;61.302;2023-04-16T00:56:09;7.25;;;2.55;;
74375;SDS011;62812;55.188;61.302;2023-04-16T00:58:38;9.57;;;2.92;;
74375;SDS011;62812;55.188;61.302;2023-04-16T01:01:05;8.05;;;2.42;;
74375;SDS011;62812;55.188;61.302;2023-04-16T01:03:34;7.65;;;2.45;;
74375;SDS011;62812;55.188;61.302;2023-04-16T01:06:03;8.25;;;2.78;;
74375;SDS011;62812;55.188;61.302;2023-04-16T01:08:32;7.07;;;2.63;;
74375;SDS011;62812;55.188;61.302;2023-04-16T01:11:00;5.18;;;2.10;;
74375;SDS011;62812;55.188;61.302;2023-04-16T01:13:27;7.75;;;2.53;;
74375;SDS011;62812;55.188;61.302;2023-04-16T01:15:54;5.75;;;2.53;;
74375;SDS011;62812;55.188;61.302;2023-04-16T01:18:21;7.47;;;2.20;;
74375;SDS011;62812;55.188;61.302;2023-04-16T01:20:50;6.93;;;2.63;;
74375;SDS011;62812;55.188;61.302;2023-04-16T01:23:19;8.52;;;2.55;;
74375;SDS011;62812;55.188;61.302;2023-04-16T01:25:46;6.40;;;2.20;;
74375;SDS011;62812;55.188;61.302;2023-04-16T01:28:13;9.68;;;2.85;;
74375;SDS011;62812;55.188;61.302;2023-04-16T01:30:40;8.32;;;2.72;;
74375;SDS011;62812;55.188;61.302;2023-04-16T01:33:09;5.75;;;2.35;;
74375;SDS011;62812;55.188;61.302;2023-04-16T01:35:36;8.50;;;3.10;;
74375;SDS011;62812;55.188;61.302;2023-04-16T01:38:04;7.22;;;2.42;;
74375;SDS011;62812;55.188;61.302;2023-04-16T01:40:32;7.95;;;2.70;;
74375;SDS011;62812;55.188;61.302;2023-04-16T01:43:00;8.00;;;2.53;;
74375;SDS011;62812;55.188;61.302;2023-04-16T01:45:27;9.38;;;2.58;;
74375;SDS011;62812;55.188;61.302;2023-04-16T01:47:54;8.77;;;3.00;;
74375;SDS011;62812;55.188;61.302;2023-04-16T01:50:21;8.60;;;2.40;;
74375;SDS011;62812;55.188;61.302;2023-04-16T01:52:48;6.97;;;2.78;;
74375;SDS011;62812;55.188;61.302;2023-04-16T01:55:17;9.13;;;2.47;;
74375;SDS011;62812;55.188;61.302;2023-04-16T01:57:43;7.20;;;2.22;;
74375;SDS011;62812;55.188;61.302;2023-04-16T02:00:12;9.32;;;2.92;;
74375;SDS011;62812;55.188;61.302;2023-04-16T02:02:39;6.00;;;2.50;;
74375;SDS011;62812;55.188;61.302;2023-04-16T02:05:07;7.50;;;2.53;;
74375;SDS011;62812;55.188;61.302;2023-04-16T02:07:34;9.20;;;2.28;;
74375;SDS011;62812;55.188;61.302;2023-04-16T02:10:01;10.32;;;2.72;;
74375;SDS011;62812;55.188;61.302;2023-04-16T02:12:31;8.25;;;2.58;;
74375;SDS011;62812;55.188;61.302;2023-04-16T02:14:58;8.63;;;2.95;;
74375;SDS011;62812;55.188;61.302;2023-04-16T02:17:25;6.35;;;2.22;;
74375;SDS011;62812;55.188;61.302;2023-04-16T02:19:52;7.70;;;2.75;;
74375;SDS011;62812;55.188;61.302;2023-04-16T02:22:19;6.97;;;2.88;;
74375;SDS011;62812;55.188;61.302;2023-04-16T02:24:47;9.25;;;2.83;;
74375;SDS011;62812;55.188;61.302;2023-04-16T02:27:15;6.85;;;2.60;;
74375;SDS011;62812;55.188;61.302;2023-04-16T02:29:44;9.10;;;2.85;;
74375;SDS011;62812;55.188;61.302;2023-04-16T02:32:10;6.70;;;2.55;;
74375;SDS011;62812;55.188;61.302;2023-04-16T02:34:37;9.60;;;3.00;;
74375;SDS011;62812;55.188;61.302;2023-04-16T02:37:05;15.70;;;3.53;;
74375;SDS011;62812;55.188;61.302;2023-04-16T02:39:33;9.02;;;2.80;;
74375;SDS011;62812;55.188;61.302;2023-04-16T02:42:00;7.35;;;2.95;;
74375;SDS011;62812;55.188;61.302;2023-04-16T02:44:27;9.70;;;2.75;;
74375;SDS011;62812;55.188;61.302;2023-04-16T02:46:57;7.90;;;2.90;;
74375;SDS011;62812;55.188;61.302;2023-04-16T02:49:26;9.38;;;2.80;;
74375;SDS011;62812;55.188;61.302;2023-04-16T02:51:53;8.50;;;3.08;;
74375;SDS011;62812;55.188;61.302;2023-04-16T02:54:20;11.85;;;2.97;;
74375;SDS011;62812;55.188;61.302;2023-04-16T02:56:49;6.63;;;2.67;;
74375;SDS011;62812;55.188;61.302;2023-04-16T02:59:17;7.40;;;2.70;;
74375;SDS011;62812;55.188;61.302;2023-04-16T03:01:44;16.33;;;3.58;;
74375;SDS011;62812;55.188;61.302;2023-04-16T03:04:14;7.85;;;2.60;;
74375;SDS011;62812;55.188;61.302;2023-04-16T03:06:52;8.88;;;2.97;;
74375;SDS011;62812;55.188;61.302;2023-04-16T03:12:53;7.45;;;2.97;;
74375;SDS011;62812;55.188;61.302;2023-04-16T03:15:22;9.23;;;3.42;;
74375;SDS011;62812;55.188;61.302;2023-04-16T03:17:53;10.73;;;3.30;;
74375;SDS011;62812;55.188;61.302;2023-04-16T03:20:27;8.05;;;3.05;;
74375;SDS011;62812;55.188;61.302;2023-04-16T03:22:54;8.93;;;3.00;;
74375;SDS011;62812;55.188;61.302;2023-04-16T03:27:51;8.65;;;2.67;;
74375;SDS011;62812;55.188;61.302;2023-04-16T03:30:19;10.18;;;2.70;;
74375;SDS011;62812;55.188;61.302;2023-04-16T03:32:47;11.63;;;2.70;;
74375;SDS011;62812;55.188;61.302;2023-04-16T03:35:15;14.95;;;3.42;;
74375;SDS011;62812;55.188;61.302;2023-04-16T03:37:45;7.15;;;2.95;;
74375;SDS011;62812;55.188;61.302;2023-04-16T03:40:14;7.88;;;2.78;;
74375;SDS011;62812;55.188;61.302;2023-04-16T03:42:43;13.02;;;3.10;;
74375;SDS011;62812;55.188;61.302;2023-04-16T03:45:12;7.93;;;2.70;;
74375;SDS011;62812;55.188;61.302;2023-04-16T03:47:41;7.05;;;2.65;;
74375;SDS011;62812;55.188;61.302;2023-04-16T03:50:08;8.02;;;2.80;;
74375;SDS011;62812;55.188;61.302;2023-04-16T03:52:42;8.13;;;2.40;;
74375;SDS011;62812;55.188;61.302;2023-04-16T03:55:15;6.53;;;2.42;;
74375;SDS011;62812;55.188;61.302;2023-04-16T03:57:43;5.95;;;2.08;;
74375;SDS011;62812;55.188;61.302;2023-04-16T04:00:13;9.30;;;2.50;;
74375;SDS011;62812;55.188;61.302;2023-04-16T04:02:40;8.85;;;2.53;;
74375;SDS011;62812;55.188;61.302;2023-04-16T04:05:08;9.45;;;2.40;;
74375;SDS011;62812;55.188;61.302;2023-04-16T04:07:35;7.55;;;2.40;;
74375;SDS011;62812;55.188;61.302;2023-04-16T04:10:11;6.68;;;2.25;;
74375;SDS011;62812;55.188;61.302;2023-04-16T04:12:38;9.23;;;2.53;;
74375;SDS011;62812;55.188;61.302;2023-04-16T04:15:05;7.05;;;2.13;;
74375;SDS011;62812;55.188;61.302;2023-04-16T04:17:34;6.45;;;2.25;;
74375;SDS011;62812;55.188;61.302;2023-04-16T04:20:02;8.45;;;1.88;;
74375;SDS011;62812;55.188;61.302;2023-04-16T04:22:35;6.07;;;1.85;;
74375;SDS011;62812;55.188;61.302;2023-04-16T04:25:02;7.57;;;1.90;;
74375;SDS011;62812;55.188;61.302;2023-04-16T04:27:32;6.97;;;1.77;;
74375;SDS011;62812;55.188;61.302;2023-04-16T04:29:59;6.43;;;2.10;;
74375;SDS011;62812;55.188;61.302;2023-04-16T04:32:26;6.78;;;1.95;;
74375;SDS011;62812;55.188;61.302;2023-04-16T04:34:53;6.53;;;1.80;;
74375;SDS011;62812;55.188;61.302;2023-04-16T04:37:21;7.40;;;1.90;;
74375;SDS011;62812;55.188;61.302;2023-04-16T04:39:48;6.65;;;1.50;;
74375;SDS011;62812;55.188;61.302;2023-04-16T04:42:16;7.45;;;2.25;;
74375;SDS011;62812;55.188;61.302;2023-04-16T04:44:45;5.82;;;1.60;;
74375;SDS011;62812;55.188;61.302;2023-04-16T04:47:12;5.30;;;1.70;;
74375;SDS011;62812;55.188;61.302;2023-04-16T04:49:41;6.13;;;1.80;;
74375;SDS011;62812;55.188;61.302;2023-04-16T04:55:03;7.95;;;1.70;;
74375;SDS011;62812;55.188;61.302;2023-04-16T04:57:38;4.53;;;1.23;;
74375;SDS011;62812;55.188;61.302;2023-04-16T05:00:10;3.00;;;1.02;;
74375;SDS011;62812;55.188;61.302;2023-04-16T05:02:40;3.85;;;1.17;;
74375;SDS011;62812;55.188;61.302;2023-04-16T05:05:10;5.78;;;1.40;;
74375;SDS011;62812;55.188;61.302;2023-04-16T05:07:39;5.50;;;1.67;;
74375;SDS011;62812;55.188;61.302;2023-04-16T05:10:17;5.78;;;1.45;;
74375;SDS011;62812;55.188;61.302;2023-04-16T05:12:45;8.27;;;1.50;;
74375;SDS011;62812;55.188;61.302;2023-04-16T05:15:20;4.00;;;1.27;;
74375;SDS011;62812;55.188;61.302;2023-04-16T05:17:48;4.70;;;1.30;;
74375;SDS011;62812;55.188;61.302;2023-04-16T05:20:16;4.68;;;1.27;;
74375;SDS011;62812;55.188;61.302;2023-04-16T05:22:45;8.55;;;1.30;;
74375;SDS011;62812;55.188;61.302;2023-04-16T05:25:13;7.72;;;0.90;;
74375;SDS011;62812;55.188;61.302;2023-04-16T05:27:41;4.18;;;1.30;;
74375;SDS011;62812;55.188;61.302;2023-04-16T05:30:09;3.10;;;1.10;;
74375;SDS011;62812;55.188;61.302;2023-04-16T05:32:45;4.90;;;1.00;;
74375;SDS011;62812;55.188;61.302;2023-04-16T05:35:13;4.22;;;0.95;;
74375;SDS011;62812;55.188;61.302;2023-04-16T05:37:41;4.43;;;1.20;;
74375;SDS011;62812;55.188;61.302;2023-04-16T05:40:12;4.78;;;1.38;;
74375;SDS011;62812;55.188;61.302;2023-04-16T05:42:40;4.60;;;1.02;;
74375;SDS011;62812;55.188;61.302;2023-04-16T05:45:08;3.88;;;1.33;;
74375;SDS011;62812;55.188;61.302;2023-04-16T05:47:43;6.03;;;1.80;;
74375;SDS011;62812;55.188;61.302;2023-04-16T05:50:15;4.53;;;1.30;;
74375;SDS011;62812;55.188;61.302;2023-04-16T05:52:43;7.00;;;1.55;;
74375;SDS011;62812;55.188;61.302;2023-04-16T05:55:12;5.65;;;1.05;;
74375;SDS011;62812;55.188;61.302;2023-04-16T05:57:39;5.05;;;1.35;;
74375;SDS011;62812;55.188;61.302;2023-04-16T06:00:08;12.25;;;2.20;;
74375;SDS011;62812;55.188;61.302;2023-04-16T06:02:42;4.63;;;1.38;;
74375;SDS011;62812;55.188;61.302;2023-04-16T06:05:11;5.10;;;1.05;;
74375;SDS011;62812;55.188;61.302;2023-04-16T06:07:40;8.85;;;1.45;;
74375;SDS011;62812;55.188;61.302;2023-04-16T06:10:13;8.98;;;1.38;;
74375;SDS011;62812;55.188;61.302;2023-04-16T06:12:43;3.63;;;0.90;;
74375;SDS011;62812;55.188;61.302;2023-04-16T06:15:15;4.90;;;1.15;;
74375;SDS011;62812;55.188;61.302;2023-04-16T06:17:45;11.38;;;2.00;;
74375;SDS011;62812;55.188;61.302;2023-04-16T06:20:13;5.97;;;0.88;;
74375;SDS011;62812;55.188;61.302;2023-04-16T06:22:48;3.60;;;0.82;;
74375;SDS011;62812;55.188;61.302;2023-04-16T06:25:25;4.53;;;1.00;;
74375;SDS011;62812;55.188;61.302;2023-04-16T06:27:56;3.22;;;0.95;;
74375;SDS011;62812;55.188;61.302;2023-04-16T06:37:03;4.05;;;0.90;;
74375;SDS011;62812;55.188;61.302;2023-04-16T06:39:37;3.33;;;1.00;;
74375;SDS011;62812;55.188;61.302;2023-04-16T06:42:11;4.13;;;1.00;;
74375;SDS011;62812;55.188;61.302;2023-04-16T06:44:44;4.57;;;1.00;;
74375;SDS011;62812;55.188;61.302;2023-04-16T06:47:27;4.53;;;0.90;;
74375;SDS011;62812;55.188;61.302;2023-04-16T06:49:57;6.18;;;1.00;;
74375;SDS011;62812;55.188;61.302;2023-04-16T06:52:30;4.57;;;0.85;;
74375;SDS011;62812;55.188;61.302;2023-04-16T06:58:02;4.88;;;1.00;;
74375;SDS011;62812;55.188;61.302;2023-04-16T07:00:33;8.68;;;1.10;;
74375;SDS011;62812;55.188;61.302;2023-04-16T07:03:08;3.15;;;0.98;;
74375;SDS011;62812;55.188;61.302;2023-04-16T07:11:30;4.28;;;1.20;;
74375;SDS011;62812;55.188;61.302;2023-04-16T07:14:00;4.32;;;0.70;;
74375;SDS011;62812;55.188;61.302;2023-04-16T07:16:34;2.00;;;0.60;;
74375;SDS011;62812;55.188;61.302;2023-04-16T07:19:13;2.00;;;0.63;;
74375;SDS011;62812;55.188;61.302;2023-04-16T07:21:50;2.50;;;0.82;;
74375;SDS011;62812;55.188;61.302;2023-04-16T07:24:29;2.65;;;0.85;;
74375;SDS011;62812;55.188;61.302;2023-04-16T07:27:00;4.22;;;1.20;;
74375;SDS011;62812;55.188;61.302;2023-04-16T07:29:27;3.47;;;0.73;;
74375;SDS011;62812;55.188;61.302;2023-04-16T07:31:56;4.07;;;0.80;;
74375;SDS011;62812;55.188;61.302;2023-04-16T07:34:28;2.15;;;0.70;;
74375;SDS011;62812;55.188;61.302;2023-04-16T07:40:09;6.28;;;0.80;;
74375;SDS011;62812;55.188;61.302;2023-04-16T07:42:46;3.20;;;0.82;;
74375;SDS011;62812;55.188;61.302;2023-04-16T07:45:13;2.25;;;0.80;;
74375;SDS011;62812;55.188;61.302;2023-04-16T07:47:58;1.75;;;0.45;;
74375;SDS011;62812;55.188;61.302;2023-04-16T07:50:29;3.47;;;0.65;;
74375;SDS011;62812;55.188;61.302;2023-04-16T07:52:58;3.70;;;0.85;;
74375;SDS011;62812;55.188;61.302;2023-04-16T07:58:15;4.55;;;0.80;;
74375;SDS011;62812;55.188;61.302;2023-04-16T08:03:26;3.20;;;0.60;;
74375;SDS011;62812;55.188;61.302;2023-04-16T08:05:55;3.00;;;0.73;;
74375;SDS011;62812;55.188;61.302;2023-04-16T08:11:00;6.72;;;0.85;;
74375;SDS011;62812;55.188;61.302;2023-04-16T08:13:35;2.70;;;0.85;;
74375;SDS011;62812;55.188;61.302;2023-04-16T08:16:02;3.17;;;0.80;;
74375;SDS011;62812;55.188;61.302;2023-04-16T08:18:32;2.58;;;0.73;;
74375;SDS011;62812;55.188;61.302;2023-04-16T08:21:02;2.85;;;0.47;;
74375;SDS011;62812;55.188;61.302;2023-04-16T08:23:32;2.83;;;0.88;;
74375;SDS011;62812;55.188;61.302;2023-04-16T08:29:04;4.88;;;0.90;;
74375;SDS011;62812;55.188;61.302;2023-04-16T08:31:31;5.07;;;0.95;;
74375;SDS011;62812;55.188;61.302;2023-04-16T08:34:02;6.45;;;1.02;;
74375;SDS011;62812;55.188;61.302;2023-04-16T08:36:30;2.85;;;0.90;;
74375;SDS011;62812;55.188;61.302;2023-04-16T08:39:02;2.45;;;0.75;;
74375;SDS011;62812;55.188;61.302;2023-04-16T08:41:31;8.50;;;1.10;;
74375;SDS011;62812;55.188;61.302;2023-04-16T08:49:57;4.65;;;1.08;;
74375;SDS011;62812;55.188;61.302;2023-04-16T08:52:30;2.92;;;0.68;;
74375;SDS011;62812;55.188;61.302;2023-04-16T08:55:02;4.35;;;0.90;;
74375;SDS011;62812;55.188;61.302;2023-04-16T08:57:36;3.15;;;0.68;;
74375;SDS011;62812;55.188;61.302;2023-04-16T09:00:08;3.47;;;0.75;;
74375;SDS011;62812;55.188;61.302;2023-04-16T09:02:40;4.22;;;0.63;;
74375;SDS011;62812;55.188;61.302;2023-04-16T09:08:09;9.05;;;1.20;;
74375;SDS011;62812;55.188;61.302;2023-04-16T09:10:37;1.05;;;0.40;;
74375;SDS011;62812;55.188;61.302;2023-04-16T09:13:07;2.05;;;0.40;;
74375;SDS011;62812;55.188;61.302;2023-04-16T09:15:46;3.65;;;1.00;;
74375;SDS011;62812;55.188;61.302;2023-04-16T09:18:18;5.75;;;1.08;;
74375;SDS011;62812;55.188;61.302;2023-04-16T09:20:55;3.97;;;1.00;;
74375;SDS011;62812;55.188;61.302;2023-04-16T09:23:29;8.65;;;1.10;;
74375;SDS011;62812;55.188;61.302;2023-04-16T09:28:54;2.40;;;0.80;;
74375;SDS011;62812;55.188;61.302;2023-04-16T09:31:21;3.70;;;0.70;;
74375;SDS011;62812;55.188;61.302;2023-04-16T09:34:09;4.75;;;1.10;;
74375;SDS011;62812;55.188;61.302;2023-04-16T09:39:42;4.95;;;1.10;;
74375;SDS011;62812;55.188;61.302;2023-04-16T09:42:22;4.63;;;0.98;;
74375;SDS011;62812;55.188;61.302;2023-04-16T09:45:04;6.30;;;1.02;;
74375;SDS011;62812;55.188;61.302;2023-04-16T09:47:49;3.72;;;0.90;;
74375;SDS011;62812;55.188;61.302;2023-04-16T09:50:25;3.10;;;1.00;;
74375;SDS011;62812;55.188;61.302;2023-04-16T09:53:08;3.13;;;1.00;;
74375;SDS011;62812;55.188;61.302;2023-04-16T09:55:43;2.55;;;1.15;;
74375;SDS011;62812;55.188;61.302;2023-04-16T09:58:17;3.72;;;1.00;;
74375;SDS011;62812;55.188;61.302;2023-04-16T10:03:58;1.77;;;0.55;;
74375;SDS011;62812;55.188;61.302;2023-04-16T10:06:40;4.80;;;0.98;;
74375;SDS011;62812;55.188;61.302;2023-04-16T10:09:10;19.98;;;1.77;;
74375;SDS011;62812;55.188;61.302;2023-04-16T10:11:45;4.47;;;0.80;;
74375;SDS011;62812;55.188;61.302;2023-04-16T10:14:16;8.45;;;1.98;;
74375;SDS011;62812;55.188;61.302;2023-04-16T10:16:43;2.20;;;0.80;;
74375;SDS011;62812;55.188;61.302;2023-04-16T10:19:14;4.15;;;0.98;;
74375;SDS011;62812;55.188;61.302;2023-04-16T10:21:46;5.25;;;1.23;;
74375;SDS011;62812;55.188;61.302;2023-04-16T10:24:18;3.28;;;0.90;;
74375;SDS011;62812;55.188;61.302;2023-04-16T10:26:54;3.58;;;1.10;;
74375;SDS011;62812;55.188;61.302;2023-04-16T10:29:27;5.30;;;1.20;;
74375;SDS011;62812;55.188;61.302;2023-04-16T10:31:57;3.20;;;1.00;;
74375;SDS011;62812;55.188;61.302;2023-04-16T10:37:00;4.85;;;0.90;;
74375;SDS011;62812;55.188;61.302;2023-04-16T10:39:31;4.97;;;1.13;;
74375;SDS011;62812;55.188;61.302;2023-04-16T10:42:09;5.60;;;0.80;;
74375;SDS011;62812;55.188;61.302;2023-04-16T10:47:32;2.65;;;0.90;;
74375;SDS011;62812;55.188;61.302;2023-04-16T10:53:19;5.28;;;1.10;;
74375;SDS011;62812;55.188;61.302;2023-04-16T11:01:30;5.18;;;1.00;;
74375;SDS011;62812;55.188;61.302;2023-04-16T11:07:04;2.30;;;0.75;;
74375;SDS011;62812;55.188;61.302;2023-04-16T11:09:44;2.80;;;0.80;;
74375;SDS011;62812;55.188;61.302;2023-04-16T11:12:15;5.43;;;0.80;;
74375;SDS011;62812;55.188;61.302;2023-04-16T11:14:48;3.90;;;0.70;;
74375;SDS011;62812;55.188;61.302;2023-04-16T11:17:21;5.03;;;1.30;;
74375;SDS011;62812;55.188;61.302;2023-04-16T11:19:48;3.03;;;0.90;;
74375;SDS011;62812;55.188;61.302;2023-04-16T11:22:20;2.75;;;0.70;;
74375;SDS011;62812;55.188;61.302;2023-04-16T11:24:52;8.27;;;1.30;;
74375;SDS011;62812;55.188;61.302;2023-04-16T11:27:24;2.72;;;1.10;;
74375;SDS011;62812;55.188;61.302;2023-04-16T11:29:59;5.85;;;1.23;;
74375;SDS011;62812;55.188;61.302;2023-04-16T11:32:29;3.97;;;0.82;;
74375;SDS011;62812;55.188;61.302;2023-04-16T11:34:59;3.95;;;1.05;;
74375;SDS011;62812;55.188;61.302;2023-04-16T11:37:32;4.10;;;1.08;;
74375;SDS011;62812;55.188;61.302;2023-04-16T11:40:00;4.05;;;1.10;;
74375;SDS011;62812;55.188;61.302;2023-04-16T11:42:33;4.55;;;0.90;;
74375;SDS011;62812;55.188;61.302;2023-04-16T11:45:06;3.28;;;1.13;;
74375;SDS011;62812;55.188;61.302;2023-04-16T11:47:42;4.05;;;1.15;;
74375;SDS011;62812;55.188;61.302;2023-04-16T11:50:17;7.80;;;1.30;;
74375;SDS011;62812;55.188;61.302;2023-04-16T11:52:46;4.85;;;0.90;;
74375;SDS011;62812;55.188;61.302;2023-04-16T11:55:13;8.07;;;1.27;;
74375;SDS011;62812;55.188;61.302;2023-04-16T11:57:40;7.57;;;1.52;;
74375;SDS011;62812;55.188;61.302;2023-04-16T12:00:11;9.90;;;1.50;;
74375;SDS011;62812;55.188;61.302;2023-04-16T12:08:44;4.75;;;1.85;;
74375;SDS011;62812;55.188;61.302;2023-04-16T12:11:12;4.55;;;1.40;;
74375;SDS011;62812;55.188;61.302;2023-04-16T12:13:40;7.03;;;1.30;;
74375;SDS011;62812;55.188;61.302;2023-04-16T12:16:15;6.22;;;1.30;;
74375;SDS011;62812;55.188;61.302;2023-04-16T12:19:00;5.63;;;1.48;;
74375;SDS011;62812;55.188;61.302;2023-04-16T12:21:37;5.88;;;1.45;;
74375;SDS011;62812;55.188;61.302;2023-04-16T12:24:06;6.57;;;1.40;;
74375;SDS011;62812;55.188;61.302;2023-04-16T12:26:42;3.30;;;1.30;;
74375;SDS011;62812;55.188;61.302;2023-04-16T12:29:15;8.48;;;1.50;;
74375;SDS011;62812;55.188;61.302;2023-04-16T12:31:46;3.20;;;0.95;;
74375;SDS011;62812;55.188;61.302;2023-04-16T12:34:20;5.03;;;1.38;;
74375;SDS011;62812;55.188;61.302;2023-04-16T12:37:06;6.55;;;1.52;;
74375;SDS011;62812;55.188;61.302;2023-04-16T12:39:35;5.68;;;1.45;;
74375;SDS011;62812;55.188;61.302;2023-04-16T12:42:05;5.60;;;1.90;;
74375;SDS011;62812;55.188;61.302;2023-04-16T12:44:42;4.10;;;1.30;;
74375;SDS011;62812;55.188;61.302;2023-04-16T12:47:10;4.70;;;1.30;;
74375;SDS011;62812;55.188;61.302;2023-04-16T12:49:39;3.88;;;1.27;;
74375;SDS011;62812;55.188;61.302;2023-04-16T12:52:13;5.68;;;1.40;;
74375;SDS011;62812;55.188;61.302;2023-04-16T12:54:40;4.32;;;1.48;;
74375;SDS011;62812;55.188;61.302;2023-04-16T12:57:07;3.22;;;1.10;;
74375;SDS011;62812;55.188;61.302;2023-04-16T12:59:35;4.25;;;1.35;;
74375;SDS011;62812;55.188;61.302;2023-04-16T13:02:07;4.00;;;1.30;;
74375;SDS011;62812;55.188;61.302;2023-04-16T13:04:35;5.20;;;1.30;;
74375;SDS011;62812;55.188;61.302;2023-04-16T13:07:03;4.97;;;2.08;;
74375;SDS011;62812;55.188;61.302;2023-04-16T13:09:33;5.47;;;1.52;;
74375;SDS011;62812;55.188;61.302;2023-04-16T13:11:59;9.55;;;1.50;;
74375;SDS011;62812;55.188;61.302;2023-04-16T13:14:30;8.90;;;1.50;;
74375;SDS011;62812;55.188;61.302;2023-04-16T13:17:01;7.22;;;1.20;;
74375;SDS011;62812;55.188;61.302;2023-04-16T13:19:38;4.43;;;1.20;;
74375;SDS011;62812;55.188;61.302;2023-04-16T13:22:09;12.32;;;1.50;;
74375;SDS011;62812;55.188;61.302;2023-04-16T13:24:45;4.20;;;1.17;;
74375;SDS011;62812;55.188;61.302;2023-04-16T13:27:47;4.88;;;1.10;;
74375;SDS011;62812;55.188;61.302;2023-04-16T13:30:45;4.82;;;1.27;;
74375;SDS011;62812;55.188;61.302;2023-04-16T13:33:14;4.47;;;1.23;;
74375;SDS011;62812;55.188;61.302;2023-04-16T13:35:45;4.60;;;1.20;;
74375;SDS011;62812;55.188;61.302;2023-04-16T13:38:43;3.50;;;1.23;;
74375;SDS011;62812;55.188;61.302;2023-04-16T13:48:56;3.40;;;1.10;;
74375;SDS011;62812;55.188;61.302;2023-04-16T13:51:23;5.50;;;1.70;;
74375;SDS011;62812;55.188;61.302;2023-04-16T13:53:56;9.40;;;1.58;;
74375;SDS011;62812;55.188;61.302;2023-04-16T13:56:51;5.60;;;1.60;;
74375;SDS011;62812;55.188;61.302;2023-04-16T13:59:28;5.18;;;1.45;;
74375;SDS011;62812;55.188;61.302;2023-04-16T14:02:12;3.97;;;1.20;;
74375;SDS011;62812;55.188;61.302;2023-04-16T14:07:28;6.25;;;1.70;;
74375;SDS011;62812;55.188;61.302;2023-04-16T14:10:03;3.85;;;1.40;;
74375;SDS011;62812;55.188;61.302;2023-04-16T14:13:39;5.10;;;1.73;;
74375;SDS011;62812;55.188;61.302;2023-04-16T14:16:09;5.40;;;1.60;;
74375;SDS011;62812;55.188;61.302;2023-04-16T14:18:37;6.05;;;1.67;;
74375;SDS011;62812;55.188;61.302;2023-04-16T14:21:08;5.32;;;1.50;;
74375;SDS011;62812;55.188;61.302;2023-04-16T14:26:16;8.20;;;1.83;;
74375;SDS011;62812;55.188;61.302;2023-04-16T14:28:48;7.35;;;2.35;;
74375;SDS011;62812;55.188;61.302;2023-04-16T14:31:22;8.00;;;1.90;;
74375;SDS011;62812;55.188;61.302;2023-04-16T14:33:51;5.80;;;1.70;;
74375;SDS011;62812;55.188;61.302;2023-04-16T14:36:18;8.00;;;2.13;;
74375;SDS011;62812;55.188;61.302;2023-04-16T14:38:50;5.75;;;1.70;;
74375;SDS011;62812;55.188;61.302;2023-04-16T14:41:19;8.13;;;2.00;;
74375;SDS011;62812;55.188;61.302;2023-04-16T14:43:51;6.13;;;1.80;;
74375;SDS011;62812;55.188;61.302;2023-04-16T14:46:18;8.00;;;2.63;;
74375;SDS011;62812;55.188;61.302;2023-04-16T14:48:51;5.95;;;2.20;;
74375;SDS011;62812;55.188;61.302;2023-04-16T14:51:20;8.00;;;2.42;;
74375;SDS011;62812;55.188;61.302;2023-04-16T14:53:47;5.68;;;1.90;;
74375;SDS011;62812;55.188;61.302;2023-04-16T14:56:17;5.63;;;1.90;;
74375;SDS011;62812;55.188;61.302;2023-04-16T14:58:44;6.75;;;1.80;;
74375;SDS011;62812;55.188;61.302;2023-04-16T15:01:15;6.78;;;2.13;;
74375;SDS011;62812;55.188;61.302;2023-04-16T15:03:42;9.10;;;2.58;;
74375;SDS011;62812;55.188;61.302;2023-04-16T15:06:11;8.05;;;2.97;;
74375;SDS011;62812;55.188;61.302;2023-04-16T15:08:39;5.13;;;1.80;;
74375;SDS011;62812;55.188;61.302;2023-04-16T15:11:15;7.13;;;2.63;;
74375;SDS011;62812;55.188;61.302;2023-04-16T15:13:46;7.68;;;2.55;;
74375;SDS011;62812;55.188;61.302;2023-04-16T15:16:28;8.80;;;2.22;;
74375;SDS011;62812;55.188;61.302;2023-04-16T15:19:05;6.53;;;2.40;;
74375;SDS011;62812;55.188;61.302;2023-04-16T15:21:44;6.90;;;2.60;;
74375;SDS011;62812;55.188;61.302;2023-04-16T15:24:23;8.93;;;2.33;;
74375;SDS011;62812;55.188;61.302;2023-04-16T15:27:29;7.97;;;2.67;;
74375;SDS011;62812;55.188;61.302;2023-04-16T15:30:03;5.30;;;2.30;;
74375;SDS011;62812;55.188;61.302;2023-04-16T15:32:47;9.43;;;3.00;;
74375;SDS011;62812;55.188;61.302;2023-04-16T15:35:21;6.20;;;1.95;;
74375;SDS011;62812;55.188;61.302;2023-04-16T15:38:14;9.02;;;2.60;;
74375;SDS011;62812;55.188;61.302;2023-04-16T15:40:41;9.32;;;2.20;;
74375;SDS011;62812;55.188;61.302;2023-04-16T15:43:12;9.80;;;2.20;;
74375;SDS011;62812;55.188;61.302;2023-04-16T15:45:40;8.02;;;2.30;;
74375;SDS011;62812;55.188;61.302;2023-04-16T15:48:08;7.90;;;2.10;;
74375;SDS011;62812;55.188;61.302;2023-04-16T15:50:34;6.88;;;2.30;;
74375;SDS011;62812;55.188;61.302;2023-04-16T15:53:03;5.03;;;1.70;;
74375;SDS011;62812;55.188;61.302;2023-04-16T15:55:32;7.07;;;2.05;;
74375;SDS011;62812;55.188;61.302;2023-04-16T15:58:01;7.07;;;1.52;;
74375;SDS011;62812;55.188;61.302;2023-04-16T16:00:35;9.20;;;2.22;;
74375;SDS011;62812;55.188;61.302;2023-04-16T16:03:03;6.35;;;2.35;;
74375;SDS011;62812;55.188;61.302;2023-04-16T16:05:33;9.35;;;2.65;;
74375;SDS011;62812;55.188;61.302;2023-04-16T16:08:00;5.22;;;2.00;;
74375;SDS011;62812;55.188;61.302;2023-04-16T16:10:37;6.20;;;2.10;;
74375;SDS011;62812;55.188;61.302;2023-04-16T16:13:06;7.63;;;2.60;;
74375;SDS011;62812;55.188;61.302;2023-04-16T16:15:38;9.10;;;2.90;;
74375;SDS011;62812;55.188;61.302;2023-04-16T16:18:09;6.05;;;2.70;;
74375;SDS011;62812;55.188;61.302;2023-04-16T16:20:39;11.88;;;2.40;;
74375;SDS011;62812;55.188;61.302;2023-04-16T16:23:06;9.05;;;2.85;;
74375;SDS011;62812;55.188;61.302;2023-04-16T16:25:34;8.75;;;2.53;;
74375;SDS011;62812;55.188;61.302;2023-04-16T16:28:06;8.75;;;2.60;;
74375;SDS011;62812;55.188;61.302;2023-04-16T16:30:34;6.55;;;2.45;;